Time;durP1;ratioP1;P1;durP2;ratioP2;P2;SDS_P1;SDS_P2;PMS_P1;PMS_P2;Temp;Humidity;BMP_temperature;BMP_pressure;BME280_temperature;BME280_humidity;BME280_pressure;Samples;Min_cycle;Max_cycle;Signal;HPM_P1;HPM_P2
2023/06/28 00:04:51;;;;;;;1.80;1.50;;;24.70;56.00;;;;;;222221;1247;22511;-47
2023/06/28 00:09:57;;;;;;;2.30;1.30;;;24.70;56.10;;;;;;222616;1254;24178;-45
2023/06/28 00:15:02;;;;;;;3.80;1.30;;;24.70;56.10;;;;;;222331;1260;22510;-47
2023/06/28 00:20:07;;;;;;;2.00;1.20;;;24.70;56.50;;;;;;222592;1244;25226;-46
2023/06/28 00:25:12;;;;;;;2.50;1.40;;;24.70;56.20;;;;;;222251;1260;24196;-46
2023/06/28 00:30:17;;;;;;;4.10;1.20;;;24.60;56.30;;;;;;222570;1250;25367;-46
2023/06/28 00:35:21;;;;;;;1.50;1.40;;;24.60;56.30;;;;;;222385;1254;22521;-46
2023/06/28 00:40:25;;;;;;;1.10;1.00;;;24.70;56.30;;;;;;222501;1256;22518;-47
2023/06/28 00:45:30;;;;;;;6.10;1.10;;;24.70;56.50;;;;;;230334;1263;22200;-46
2023/06/28 00:50:36;;;;;;;3.80;1.40;;;24.70;56.30;;;;;;230358;1260;22999;-45
2023/06/28 00:55:41;;;;;;;1.90;1.30;;;25.00;55.60;;;;;;230362;1260;22858;-46
2023/06/28 01:00:45;;;;;;;1.20;1.10;;;25.00;55.50;;;;;;227606;1250;22603;-47
2023/06/28 01:05:57;;;;;;;1.70;1.10;;;25.00;55.80;;;;;;222586;1260;24257;-47
2023/06/28 01:11:02;;;;;;;2.80;1.50;;;24.80;56.00;;;;;;222510;1253;23123;-47
2023/06/28 01:16:06;;;;;;;4.00;1.40;;;24.70;56.50;;;;;;222525;1256;25388;-47
2023/06/28 01:21:14;;;;;;;2.80;1.50;;;24.70;56.60;;;;;;222348;1260;22519;-47
2023/06/28 01:26:19;;;;;;;1.00;1.00;;;24.70;56.70;;;;;;222495;1264;22824;-44
2023/06/28 01:31:24;;;;;;;1.00;1.00;;;24.70;56.20;;;;;;222398;1253;23869;-45
2023/06/28 01:36:29;;;;;;;1.80;1.40;;;24.70;56.70;;;;;;222534;1257;25255;-46
2023/06/28 01:41:35;;;;;;;2.10;0.90;;;24.60;56.90;;;;;;222569;1254;24200;-46
2023/06/28 01:46:40;;;;;;;2.10;1.20;;;24.70;56.90;;;;;;222557;1256;22526;-47
2023/06/28 01:51:44;;;;;;;3.20;1.40;;;24.60;57.30;;;;;;222379;1253;24260;-48
2023/06/28 01:56:48;;;;;;;2.40;1.10;;;24.60;56.90;;;;;;222372;1253;22517;-46
2023/06/28 02:01:54;;;;;;;1.00;0.90;;;24.60;56.90;;;;;;222478;1266;25492;-47
2023/06/28 02:06:58;;;;;;;2.70;1.10;;;24.60;56.90;;;;;;222380;1253;22530;-45
2023/06/28 02:12:03;;;;;;;1.70;1.10;;;24.60;57.00;;;;;;222479;1256;25437;-46
2023/06/28 02:17:13;;;;;;;1.10;1.00;;;24.60;57.10;;;;;;222161;1256;226489;-46
2023/06/28 02:22:19;;;;;;;2.70;1.10;;;24.50;57.10;;;;;;222484;1260;22557;-46
2023/06/28 02:27:23;;;;;;;0.90;0.90;;;24.50;57.60;;;;;;222333;1263;24061;-49
2023/06/28 02:32:30;;;;;;;1.80;1.00;;;24.50;57.20;;;;;;222237;1258;23886;-46
2023/06/28 02:37:35;;;;;;;1.60;1.10;;;24.50;57.20;;;;;;222292;1260;22892;-46
2023/06/28 02:42:40;;;;;;;2.10;1.10;;;24.50;57.10;;;;;;223554;1253;22533;-46
2023/06/28 02:47:44;;;;;;;2.40;1.10;;;24.60;56.80;;;;;;230499;1260;22891;-45
2023/06/28 02:52:49;;;;;;;1.00;0.80;;;24.60;56.80;;;;;;230288;1267;22287;-45
2023/06/28 02:57:53;;;;;;;1.20;0.90;;;24.70;56.60;;;;;;230092;1268;22283;-46
2023/06/28 03:02:58;;;;;;;0.90;0.90;;;24.80;56.50;;;;;;222751;1260;25278;-46
2023/06/28 03:08:04;;;;;;;2.70;1.00;;;24.80;56.50;;;;;;222736;1262;24222;-46
2023/06/28 03:13:08;;;;;;;0.80;0.80;;;24.70;57.00;;;;;;222429;1260;22508;-45
2023/06/28 03:18:13;;;;;;;1.30;1.00;;;24.60;57.20;;;;;;222672;1261;22586;-47
2023/06/28 03:23:17;;;;;;;1.00;0.80;;;24.50;57.60;;;;;;222812;1247;24214;-46
2023/06/28 03:28:22;;;;;;;0.80;0.80;;;24.50;57.40;;;;;;222042;1259;23287;-48
2023/06/28 03:33:26;;;;;;;1.10;0.90;;;24.50;57.50;;;;;;222559;1253;22623;-47
2023/06/28 03:38:30;;;;;;;2.70;0.90;;;24.50;57.50;;;;;;222655;1260;24190;-47
2023/06/28 03:43:35;;;;;;;1.90;1.00;;;24.50;57.50;;;;;;222592;1256;22507;-46
2023/06/28 03:48:39;;;;;;;1.00;0.90;;;24.50;57.90;;;;;;222400;1260;22593;-47
2023/06/28 03:53:43;;;;;;;1.60;0.90;;;24.50;57.60;;;;;;222731;1252;22510;-46
2023/06/28 03:58:50;;;;;;;1.50;0.80;;;24.50;58.00;;;;;;222512;1261;24189;-46
2023/06/28 04:03:55;;;;;;;0.60;0.60;;;24.50;57.70;;;;;;222415;1260;22980;-46
2023/06/28 04:08:59;;;;;;;1.50;1.10;;;24.50;57.60;;;;;;222757;1263;22507;-47
2023/06/28 04:14:04;;;;;;;1.50;1.10;;;24.50;58.00;;;;;;222412;1261;22507;-48
2023/06/28 04:19:08;;;;;;;0.50;0.50;;;24.50;57.70;;;;;;222660;1260;22513;-46
2023/06/28 04:24:13;;;;;;;0.80;0.80;;;24.50;57.70;;;;;;222206;1263;25365;-48
2023/06/28 04:29:17;;;;;;;1.20;0.90;;;24.50;57.80;;;;;;222380;1267;23007;-45
2023/06/28 04:34:25;;;;;;;1.20;0.70;;;24.50;57.70;;;;;;222194;1254;22516;-46
2023/06/28 04:39:29;;;;;;;1.80;1.00;;;24.50;57.80;;;;;;222460;1253;22504;-46
2023/06/28 04:44:36;;;;;;;1.40;0.90;;;24.50;57.70;;;;;;222491;1254;22508;-48
2023/06/28 04:49:47;;;;;;;0.80;0.80;;;24.40;57.70;;;;;;222845;1260;25408;-44
2023/06/28 04:54:51;;;;;;;2.80;0.60;;;24.50;57.80;;;;;;222544;1260;23363;-49
2023/06/28 04:59:57;;;;;;;0.70;0.70;;;24.40;57.80;;;;;;222767;1263;24253;-48
2023/06/28 05:05:01;;;;;;;0.80;0.80;;;24.50;57.90;;;;;;222602;1253;24237;-46
2023/06/28 05:10:06;;;;;;;1.50;0.60;;;24.40;58.50;;;;;;222466;1266;22640;-47
2023/06/28 05:15:11;;;;;;;1.00;0.70;;;24.50;57.80;;;;;;222563;1254;22520;-47
2023/06/28 05:20:16;;;;;;;1.10;0.80;;;24.50;58.00;;;;;;222577;1263;23124;-46
2023/06/28 05:25:20;;;;;;;0.70;0.70;;;24.50;57.90;;;;;;222293;1256;24135;-47
2023/06/28 05:30:26;;;;;;;1.00;0.90;;;24.50;57.70;;;;;;222771;1244;27499;-47
2023/06/28 05:35:32;;;;;;;0.60;0.60;;;24.50;57.80;;;;;;222481;1260;22514;-49
2023/06/28 05:40:36;;;;;;;2.50;0.70;;;24.50;57.80;;;;;;222725;1254;23905;-48
2023/06/28 05:45:42;;;;;;;4.20;0.70;;;24.50;57.70;;;;;;222378;1250;22632;-46
2023/06/28 05:50:48;;;;;;;1.70;0.80;;;24.50;57.80;;;;;;222360;1254;22521;-47
2023/06/28 05:55:53;;;;;;;3.90;1.30;;;24.50;58.20;;;;;;222815;1261;22526;-49
2023/06/28 06:00:59;;;;;;;3.60;1.20;;;24.40;57.60;;;;;;222873;1260;24759;-49
2023/06/28 06:06:03;;;;;;;2.60;1.30;;;24.20;56.00;;;;;;222745;1260;24318;-47
2023/06/28 06:11:08;;;;;;;5.80;1.70;;;24.10;55.70;;;;;;222261;1261;24297;-47
2023/06/28 06:16:12;;;;;;;2.50;1.40;;;24.00;55.50;;;;;;222918;1256;22500;-46
2023/06/28 06:21:16;;;;;;;4.10;1.30;;;24.00;55.40;;;;;;222452;1257;22624;-55
2023/06/28 06:26:20;;;;;;;5.70;1.80;;;24.10;55.00;;;;;;222431;1263;22507;-47
2023/06/28 06:31:25;;;;;;;4.40;1.40;;;24.20;55.60;;;;;;222438;1254;24346;-50
2023/06/28 06:36:29;;;;;;;5.90;1.40;;;24.40;55.30;;;;;;222427;1260;22507;-50
2023/06/28 06:41:34;;;;;;;4.70;1.30;;;24.50;55.70;;;;;;222318;1264;22593;-50
2023/06/28 06:46:38;;;;;;;9.90;1.80;;;24.40;56.60;;;;;;222158;1260;22573;-50
2023/06/28 06:51:42;;;;;;;4.90;1.30;;;24.60;56.20;;;;;;228397;1268;24239;-49
2023/06/28 06:56:46;;;;;;;12.20;2.00;;;24.70;55.00;;;;;;222836;1261;22510;-47
2023/06/28 07:01:51;;;;;;;4.90;1.90;;;24.10;56.10;;;;;;222782;1260;25688;-49
2023/06/28 07:06:55;;;;;;;3.50;1.60;;;24.20;55.60;;;;;;227497;1263;23951;-47
2023/06/28 07:12:00;;;;;;;3.80;1.20;;;23.90;55.60;;;;;;230285;1264;22810;-50
2023/06/28 07:17:05;;;;;;;3.80;1.30;;;24.40;54.60;;;;;;222599;1260;22919;-51
2023/06/28 07:22:11;;;;;;;4.20;1.10;;;24.80;54.40;;;;;;222362;1251;22497;-50
2023/06/28 07:27:15;;;;;;;5.30;1.30;;;24.80;54.10;;;;;;222342;1263;22917;-51
2023/06/28 07:32:20;;;;;;;3.80;1.30;;;24.90;54.20;;;;;;222096;1264;23932;-53
2023/06/28 07:37:24;;;;;;;4.50;1.70;;;24.90;54.10;;;;;;222301;1261;22548;-52
2023/06/28 07:42:29;;;;;;;2.20;1.20;;;25.00;54.30;;;;;;222627;1263;22628;-51
2023/06/28 07:47:33;;;;;;;2.00;1.20;;;25.00;53.90;;;;;;223137;1260;22512;-50
2023/06/28 07:52:38;;;;;;;3.50;1.50;;;25.00;54.00;;;;;;222403;1261;23925;-52
2023/06/28 07:57:42;;;;;;;4.70;1.40;;;25.00;53.00;;;;;;222308;1262;24170;-52
2023/06/28 08:02:48;;;;;;;3.00;1.20;;;25.00;53.20;;;;;;221788;1253;22637;-47
2023/06/28 08:07:56;;;;;;;3.20;1.30;;;25.00;53.80;;;;;;222259;1264;24224;-48
2023/06/28 08:13:00;;;;;;;2.20;1.20;;;24.90;53.10;;;;;;222323;1264;22553;-51
2023/06/28 08:18:07;;;;;;;3.60;1.50;;;24.90;53.40;;;;;;222422;1263;22629;-49
2023/06/28 08:23:13;;;;;;;5.20;1.40;;;24.90;52.60;;;;;;220926;1271;23893;-48
2023/06/28 08:28:17;;;;;;;2.40;1.30;;;24.90;52.80;;;;;;220707;1260;24160;-49
2023/06/28 08:33:24;;;;;;;3.50;1.40;;;24.90;51.80;;;;;;220709;1265;24261;-51
2023/06/28 08:38:29;;;;;;;2.20;1.20;;;25.00;52.30;;;;;;221201;1254;23911;-52
2023/06/28 08:43:34;;;;;;;3.40;1.50;;;24.90;52.70;;;;;;222248;1246;22512;-49
2023/06/28 08:48:38;;;;;;;3.70;1.20;;;24.90;52.50;;;;;;222161;1246;22512;-51
2023/06/28 08:53:45;;;;;;;2.90;1.20;;;25.00;52.60;;;;;;222590;1264;24180;-48
2023/06/28 08:58:51;;;;;;;1.30;1.20;;;25.00;52.30;;;;;;222429;1256;22504;-52
2023/06/28 09:03:56;;;;;;;3.30;1.10;;;25.00;52.30;;;;;;222513;1253;22509;-49
2023/06/28 09:09:02;;;;;;;1.90;1.20;;;25.00;52.20;;;;;;222426;1261;22491;-49
2023/06/28 09:14:07;;;;;;;2.10;1.00;;;25.00;52.20;;;;;;222647;1260;23277;-50
2023/06/28 09:19:13;;;;;;;3.80;1.30;;;25.00;51.70;;;;;;222547;1268;25258;-53
2023/06/28 09:24:24;;;;;;;1.60;1.10;;;25.00;52.10;;;;;;222575;1267;22525;-51
2023/06/28 09:29:29;;;;;;;2.60;1.40;;;24.90;52.50;;;;;;222441;1266;25302;-47
2023/06/28 09:34:36;;;;;;;2.80;0.80;;;25.00;51.70;;;;;;222561;1260;24210;-49
2023/06/28 09:39:41;;;;;;;3.30;1.30;;;25.00;51.80;;;;;;222339;1260;25454;-46
2023/06/28 09:44:55;;;;;;;3.80;1.50;;;25.00;51.50;;;;;;222261;1251;23448;-47
2023/06/28 09:50:02;;;;;;;2.30;1.00;;;24.90;51.70;;;;;;222483;1265;22508;-47
2023/06/28 09:55:07;;;;;;;4.50;1.30;;;24.80;51.70;;;;;;221603;1250;25450;-54
2023/06/28 10:00:13;;;;;;;2.90;1.30;;;24.70;51.70;;;;;;221539;1266;23328;-50
2023/06/28 10:05:18;;;;;;;3.30;1.20;;;24.70;51.90;;;;;;221278;1269;22904;-46
2023/06/28 10:10:22;;;;;;;1.70;1.50;;;24.70;52.20;;;;;;221484;1260;24201;-51
2023/06/28 10:15:29;;;;;;;2.20;1.30;;;24.70;52.30;;;;;;221306;1266;25390;-48
2023/06/28 10:20:37;;;;;;;3.10;1.30;;;24.70;52.30;;;;;;221531;1257;22525;-52
2023/06/28 10:25:44;;;;;;;5.40;1.90;;;24.80;52.90;;;;;;221521;1269;22987;-51
2023/06/28 10:30:51;;;;;;;4.10;2.00;;;24.80;52.40;;;;;;221877;1266;22514;-52
2023/06/28 10:35:56;;;;;;;2.80;1.60;;;24.80;52.70;;;;;;222379;1260;22514;-51
2023/06/28 10:41:05;;;;;;;2.90;1.60;;;24.70;52.60;;;;;;222634;1259;25139;-47
2023/06/28 10:46:23;;;;;;;2.30;1.60;;;24.70;52.70;;;;;;222508;1260;22507;-50
2023/06/28 10:51:34;;;;;;;1.80;1.60;;;24.70;52.80;;;;;;222474;1254;22623;-51
2023/06/28 10:56:49;;;;;;;2.60;1.60;;;24.70;53.10;;;;;;222420;1264;22729;-49
2023/06/28 11:01:54;;;;;;;3.40;1.50;;;24.70;53.30;;;;;;222742;1263;25390;-50
2023/06/28 11:07:21;;;;;;;1.70;1.30;;;24.70;53.10;;;;;;222737;1261;26509;-52
2023/06/28 11:12:26;;;;;;;3.50;1.50;;;24.70;53.20;;;;;;222567;1266;22508;-52
2023/06/28 11:17:32;;;;;;;2.70;1.00;;;24.70;53.30;;;;;;222440;1260;24170;-50
2023/06/28 11:22:53;;;;;;;1.90;1.30;;;24.70;53.30;;;;;;222399;1260;24668;-51
2023/06/28 11:27:58;;;;;;;1.30;1.10;;;24.70;53.40;;;;;;222776;1248;22721;-50
2023/06/28 11:33:02;;;;;;;1.10;1.10;;;24.70;53.50;;;;;;222633;1244;24397;-54
2023/06/28 11:38:08;;;;;;;2.20;1.60;;;24.70;53.50;;;;;;222607;1257;22586;-49
2023/06/28 11:43:13;;;;;;;3.80;1.20;;;24.80;54.30;;;;;;222493;1254;24237;-51
2023/06/28 11:48:20;;;;;;;2.70;1.00;;;24.80;53.60;;;;;;222298;1267;26606;-49
2023/06/28 11:53:27;;;;;;;1.40;1.30;;;24.70;53.80;;;;;;222417;1267;22773;-50
2023/06/28 11:58:32;;;;;;;1.10;1.00;;;24.80;53.80;;;;;;222368;1266;22590;-53
2023/06/28 12:03:38;;;;;;;1.90;1.30;;;24.70;54.30;;;;;;222181;1260;25258;-49
2023/06/28 12:08:43;;;;;;;1.80;1.20;;;24.70;53.90;;;;;;221861;1269;22512;-51
2023/06/28 12:13:47;;;;;;;2.70;1.20;;;24.70;54.00;;;;;;222017;1256;25214;-48
2023/06/28 12:18:58;;;;;;;1.10;1.00;;;24.70;54.00;;;;;;222166;1264;22518;-52
2023/06/28 12:24:21;;;;;;;1.20;0.80;;;24.70;54.30;;;;;;221859;1264;22978;-50
2023/06/28 12:29:29;;;;;;;1.80;1.20;;;24.70;54.10;;;;;;222189;1263;22630;-52
2023/06/28 12:34:34;;;;;;;1.40;1.30;;;24.80;54.10;;;;;;221970;1263;22522;-50
2023/06/28 12:39:40;;;;;;;2.90;1.30;;;24.80;54.20;;;;;;221995;1263;24409;-52
2023/06/28 12:44:52;;;;;;;1.10;1.10;;;24.80;54.00;;;;;;222118;1263;25472;-51
2023/06/28 12:49:56;;;;;;;;;;;24.80;54.10;;;;;;222071;1266;23963;-50
2023/06/28 12:55:00;;;;;;;1.80;1.60;;;24.70;54.30;;;;;;222217;1254;22516;-51
2023/06/28 13:00:06;;;;;;;2.00;1.60;;;24.80;53.80;;;;;;222329;1263;22637;-53
2023/06/28 13:05:11;;;;;;;15.80;3.70;;;24.80;54.40;;;;;;222441;1264;22517;-49
2023/06/28 13:10:15;;;;;;;8.80;2.30;;;24.90;56.60;;;;;;222687;1254;24236;-49
2023/06/28 13:15:19;;;;;;;11.30;2.40;;;24.90;56.60;;;;;;222448;1263;22507;-51
2023/06/28 13:20:24;;;;;;;10.60;2.60;;;24.90;57.10;;;;;;222523;1254;22572;-49
2023/06/28 13:25:28;;;;;;;9.10;2.50;;;24.90;58.50;;;;;;222464;1266;22613;-48
2023/06/28 13:30:32;;;;;;;9.30;2.30;;;24.90;57.10;;;;;;222423;1260;25306;-49
2023/06/28 13:35:37;;;;;;;7.40;2.60;;;24.90;57.20;;;;;;222417;1266;25350;-49
2023/06/28 13:40:41;;;;;;;7.60;2.00;;;24.90;57.60;;;;;;222517;1260;22520;-48
2023/06/28 13:45:45;;;;;;;7.10;3.00;;;24.90;57.50;;;;;;222340;1268;22528;-50
2023/06/28 13:50:50;;;;;;;5.80;2.30;;;24.80;56.80;;;;;;222254;1264;24295;-49
2023/06/28 13:55:54;;;;;;;6.80;2.20;;;24.80;57.00;;;;;;222626;1261;22570;-46
2023/06/28 14:00:59;;;;;;;6.70;2.00;;;24.90;57.60;;;;;;222441;1253;24340;-46
2023/06/28 14:06:05;;;;;;;3.20;1.90;;;24.90;57.50;;;;;;222661;1261;22507;-48
2023/06/28 14:11:10;;;;;;;6.30;2.10;;;25.00;56.90;;;;;;222393;1260;22514;-46
2023/06/28 14:16:15;;;;;;;11.30;2.60;;;25.00;57.80;;;;;;223484;1267;254513;-48
2023/06/28 14:21:20;;;;;;;5.10;2.40;;;25.00;57.30;;;;;;223494;1267;24212;-47
2023/06/28 14:26:24;;;;;;;6.40;2.80;;;25.00;56.70;;;;;;222490;1265;24909;-50
2023/06/28 14:31:29;;;;;;;3.30;1.80;;;24.90;56.80;;;;;;222414;1261;24243;-48
2023/06/28 14:36:34;;;;;;;7.00;2.10;;;24.90;56.70;;;;;;230677;1269;22201;-50
2023/06/28 14:41:38;;;;;;;4.40;1.80;;;24.90;56.70;;;;;;224125;1268;22518;-51
2023/06/28 14:46:42;;;;;;;7.10;2.00;;;24.50;55.60;;;;;;222182;1268;22627;-49
2023/06/28 14:51:47;;;;;;;5.70;2.30;;;24.40;55.30;;;;;;222266;1268;25334;-48
2023/06/28 14:56:51;;;;;;;9.20;2.30;;;24.20;55.90;;;;;;222467;1267;22513;-47
2023/06/28 15:01:57;;;;;;;12.50;2.40;;;23.90;57.30;;;;;;222224;1268;22627;-51
2023/06/28 15:07:02;;;;;;;19.20;2.90;;;24.10;60.00;;;;;;222277;1255;24099;-49
2023/06/28 15:12:07;;;;;;;9.00;2.40;;;24.20;60.60;;;;;;222006;1266;22517;-50
2023/06/28 15:17:17;;;;;;;10.50;2.10;;;24.30;60.40;;;;;;222392;1266;24295;-48
2023/06/28 15:22:21;;;;;;;5.30;1.70;;;24.30;60.00;;;;;;222138;1254;26599;-49
2023/06/28 15:27:25;;;;;;;5.30;2.30;;;24.30;58.60;;;;;;222539;1269;22573;-49
2023/06/28 15:32:29;;;;;;;7.00;2.10;;;24.20;58.00;;;;;;222362;1264;24262;-49
2023/06/28 15:37:36;;;;;;;6.30;2.00;;;24.20;58.30;;;;;;222313;1264;24202;-49
2023/06/28 15:42:43;;;;;;;11.80;2.30;;;24.20;58.00;;;;;;222415;1264;25345;-50
2023/06/28 15:47:47;;;;;;;5.00;2.20;;;24.20;57.80;;;;;;222299;1254;23880;-49
2023/06/28 15:52:52;;;;;;;4.20;2.10;;;24.30;57.30;;;;;;222205;1254;25582;-51
2023/06/28 15:57:57;;;;;;;4.50;2.00;;;24.30;57.30;;;;;;222895;1267;22630;-48
2023/06/28 16:03:02;;;;;;;5.70;1.90;;;24.40;57.50;;;;;;222665;1261;22633;-52
2023/06/28 16:08:07;;;;;;;5.60;2.30;;;24.40;57.60;;;;;;222423;1260;22507;-49
2023/06/28 16:13:14;;;;;;;6.40;2.10;;;24.40;57.20;;;;;;222347;1256;22521;-48
2023/06/28 16:18:18;;;;;;;3.50;2.10;;;24.40;57.50;;;;;;222423;1264;22939;-52
2023/06/28 16:35:44;;;;;;;7.00;1.80;;;24.40;57.20;;;;;;222458;1264;22786;-48
2023/06/28 16:40:49;;;;;;;3.60;1.80;;;24.50;57.50;;;;;;224672;1245;22892;-45
2023/06/28 16:45:54;;;;;;;3.10;2.00;;;24.50;57.60;;;;;;222611;1264;23144;-49
2023/06/28 16:50:59;;;;;;;2.10;1.80;;;24.50;57.20;;;;;;222160;1254;24209;-47
2023/06/28 16:56:04;;;;;;;5.80;2.00;;;24.50;57.20;;;;;;222520;1254;24185;-51
2023/06/28 17:01:08;;;;;;;6.80;2.60;;;24.50;57.40;;;;;;229592;1262;25275;-51
2023/06/28 17:06:16;;;;;;;5.00;2.20;;;24.50;57.70;;;;;;222874;1260;22582;-50
2023/06/28 17:11:21;;;;;;;6.50;2.30;;;24.70;57.30;;;;;;222654;1264;22639;-52
2023/06/28 17:16:32;;;;;;;8.70;2.40;;;24.60;58.00;;;;;;222498;1254;24279;-49
2023/06/28 17:21:38;;;;;;;5.10;1.90;;;24.40;58.30;;;;;;222334;1264;27699;-49
2023/06/28 17:26:43;;;;;;;5.90;2.00;;;24.30;58.40;;;;;;222396;1253;24167;-43
2023/06/28 17:31:53;;;;;;;7.80;2.00;;;24.30;58.40;;;;;;222593;1261;22574;-43
2023/06/28 17:36:59;;;;;;;8.00;1.60;;;24.30;58.60;;;;;;222448;1254;22508;-48
2023/06/28 17:42:05;;;;;;;3.70;1.70;;;24.30;58.40;;;;;;222108;1255;22534;-48
2023/06/28 17:47:11;;;;;;;9.80;2.40;;;24.30;58.30;;;;;;222788;1263;25380;-47
2023/06/28 17:52:17;;;;;;;6.70;2.00;;;24.30;58.20;;;;;;222705;1267;22526;-47
2023/06/28 17:57:23;;;;;;;5.50;1.90;;;24.20;58.40;;;;;;222559;1267;22510;-52
2023/06/28 18:02:29;;;;;;;5.90;1.90;;;24.30;58.60;;;;;;222595;1261;22526;-53
2023/06/28 18:07:38;;;;;;;5.40;1.70;;;24.50;57.90;;;;;;222586;1263;25501;-52
2023/06/28 18:12:43;;;;;;;6.50;2.00;;;24.60;58.70;;;;;;222562;1251;24270;-51
2023/06/28 18:17:49;;;;;;;9.40;2.30;;;24.60;58.30;;;;;;222795;1260;24180;-52
2023/06/28 18:22:55;;;;;;;6.90;2.10;;;24.50;58.80;;;;;;222700;1265;23051;-52
2023/06/28 18:28:01;;;;;;;12.20;2.00;;;24.50;59.00;;;;;;222519;1260;25322;-54
2023/06/28 18:33:06;;;;;;;8.90;2.10;;;24.60;60.10;;;;;;222794;1260;22798;-51
2023/06/28 18:38:11;;;;;;;8.10;2.20;;;24.70;59.50;;;;;;222596;1257;23469;-55
2023/06/28 18:43:16;;;;;;;4.50;2.20;;;24.60;59.70;;;;;;222561;1263;22566;-52
2023/06/28 18:48:21;;;;;;;5.20;1.70;;;24.60;60.00;;;;;;222556;1260;22540;-54
2023/06/28 18:53:30;;;;;;;4.20;2.00;;;24.60;60.00;;;;;;222209;1266;26480;-56
2023/06/28 18:58:36;;;;;;;9.60;2.10;;;24.60;59.40;;;;;;222341;1260;24189;-54
2023/06/28 19:03:41;;;;;;;4.90;1.70;;;24.50;59.80;;;;;;222393;1260;24225;-52
2023/06/28 19:08:46;;;;;;;5.20;2.50;;;24.70;59.80;;;;;;222704;1260;23124;-53
2023/06/28 19:13:52;;;;;;;7.50;2.30;;;24.60;59.80;;;;;;222604;1260;24275;-52
2023/06/28 19:18:57;;;;;;;7.30;1.90;;;24.70;59.00;;;;;;222672;1264;25690;-54
2023/06/28 19:24:03;;;;;;;7.90;2.00;;;24.70;58.10;;;;;;222422;1260;22549;-51
2023/06/28 19:29:08;;;;;;;8.10;2.30;;;24.70;59.20;;;;;;222430;1254;22532;-54
2023/06/28 19:34:13;;;;;;;9.20;2.60;;;24.70;59.60;;;;;;222259;1260;24136;-52
2023/06/28 19:39:19;;;;;;;7.10;2.50;;;24.70;59.50;;;;;;222477;1260;22539;-54
2023/06/28 19:44:23;;;;;;;10.50;2.40;;;24.70;60.60;;;;;;222619;1254;22563;-54
2023/06/28 19:49:28;;;;;;;6.30;2.40;;;24.70;60.40;;;;;;222514;1260;22749;-54
2023/06/28 19:54:32;;;;;;;29.90;9.30;;;24.70;60.20;;;;;;222505;1263;24225;-52
2023/06/28 19:59:42;;;;;;;16.20;5.60;;;24.70;60.60;;;;;;222287;1264;22545;-51
2023/06/28 20:04:46;;;;;;;10.90;4.70;;;24.80;61.90;;;;;;222757;1265;22511;-54
2023/06/28 20:09:51;;;;;;;16.50;5.00;;;24.90;61.40;;;;;;222555;1266;24225;-46
2023/06/28 20:14:55;;;;;;;14.70;4.50;;;24.90;61.30;;;;;;222511;1257;24423;-47
2023/06/28 20:20:02;;;;;;;14.90;4.60;;;24.80;61.50;;;;;;222376;1260;23915;-48
2023/06/28 20:25:07;;;;;;;14.80;3.90;;;24.90;61.80;;;;;;222781;1260;22508;-47
2023/06/28 20:30:12;;;;;;;10.20;4.60;;;24.70;61.90;;;;;;222316;1260;22510;-47
2023/06/28 20:35:17;;;;;;;14.40;3.90;;;24.80;61.40;;;;;;222464;1264;22512;-49
2023/06/28 20:40:22;;;;;;;11.30;3.90;;;24.80;61.00;;;;;;222442;1260;22514;-48
2023/06/28 20:45:27;;;;;;;11.70;4.10;;;24.70;61.20;;;;;;222416;1264;24104;-45
2023/06/28 20:50:32;;;;;;;9.90;3.80;;;24.80;60.50;;;;;;222376;1260;22546;-47
2023/06/28 20:55:37;;;;;;;12.00;4.60;;;24.80;61.00;;;;;;222520;1254;25274;-46
2023/06/28 21:00:42;;;;;;;9.10;4.30;;;24.90;60.50;;;;;;222318;1260;24224;-46
2023/06/28 21:05:46;;;;;;;12.20;4.10;;;25.00;60.70;;;;;;222570;1260;25342;-47
2023/06/28 21:10:52;;;;;;;9.10;3.60;;;25.00;60.60;;;;;;222366;1260;22525;-46
2023/06/28 21:15:56;;;;;;;11.10;3.90;;;25.00;60.70;;;;;;222390;1260;22543;-47
2023/06/28 21:21:02;;;;;;;7.70;4.20;;;25.10;61.20;;;;;;222018;1254;24218;-45
2023/06/28 21:26:06;;;;;;;12.50;3.80;;;25.10;60.90;;;;;;222405;1256;22643;-46
2023/06/28 21:31:11;;;;;;;9.10;3.60;;;25.10;60.90;;;;;;222526;1260;22521;-47
2023/06/28 21:36:16;;;;;;;13.00;3.80;;;25.10;61.60;;;;;;222431;1260;22585;-47
2023/06/28 21:41:20;;;;;;;12.30;4.00;;;25.10;61.60;;;;;;222458;1250;24311;-46
2023/06/28 21:46:24;;;;;;;7.10;3.30;;;25.10;61.70;;;;;;222575;1260;24238;-47
2023/06/28 21:51:29;;;;;;;8.30;3.90;;;25.10;61.50;;;;;;222300;1260;24233;-45
2023/06/28 21:56:33;;;;;;;11.20;3.90;;;25.20;61.50;;;;;;222625;1254;24180;-46
2023/06/28 22:01:38;;;;;;;10.60;4.40;;;25.10;61.30;;;;;;222186;1260;22640;-46
2023/06/28 22:06:42;;;;;;;6.70;3.80;;;25.10;61.60;;;;;;222454;1260;23858;-46
2023/06/28 22:12:04;;;;;;;;;;;25.10;61.70;;;;;;222428;1260;24215;-47
2023/06/28 22:17:11;;;;;;;8.30;3.80;;;25.30;61.40;;;;;;222545;1267;22919;-45
2023/06/28 22:22:16;;;;;;;7.20;3.50;;;25.10;62.10;;;;;;222422;1260;24212;-47
2023/06/28 22:27:20;;;;;;;9.50;3.80;;;25.10;61.40;;;;;;222119;1266;24251;-48
2023/06/28 22:32:24;;;;;;;7.20;3.40;;;25.10;61.50;;;;;;222699;1263;24306;-42
2023/06/28 22:37:29;;;;;;;4.90;3.50;;;25.10;61.20;;;;;;222420;1260;22523;-42
2023/06/28 22:42:34;;;;;;;9.70;3.70;;;25.00;61.80;;;;;;222376;1260;25080;-46
2023/06/28 22:47:38;;;;;;;7.20;2.80;;;25.00;61.20;;;;;;222390;1260;26579;-43
2023/06/28 22:52:43;;;;;;;6.50;2.90;;;25.10;61.30;;;;;;222487;1253;24304;-44
2023/06/28 22:57:48;;;;;;;7.60;3.00;;;25.10;61.20;;;;;;222829;1260;24183;-44
2023/06/28 23:02:52;;;;;;;5.50;3.30;;;25.10;60.90;;;;;;222103;1263;25329;-45
2023/06/28 23:07:57;;;;;;;4.50;2.50;;;25.10;61.10;;;;;;222445;1263;22507;-43
2023/06/28 23:13:02;;;;;;;7.30;3.10;;;25.00;60.90;;;;;;222152;1254;24233;-42
2023/06/28 23:18:06;;;;;;;5.90;3.40;;;25.00;61.00;;;;;;222415;1265;23043;-43
2023/06/28 23:23:12;;;;;;;6.80;2.90;;;25.00;61.10;;;;;;222407;1263;22534;-43
2023/06/28 23:28:20;;;;;;;6.40;3.00;;;24.90;61.50;;;;;;222141;1263;23160;-43
2023/06/28 23:33:25;;;;;;;5.10;2.70;;;24.90;61.30;;;;;;226490;1261;22512;-42
2023/06/28 23:38:29;;;;;;;6.00;2.80;;;24.90;61.00;;;;;;228309;1262;24324;-43
2023/06/28 23:43:39;;;;;;;4.00;2.70;;;25.00;60.40;;;;;;223871;1253;24295;-40
2023/06/28 23:48:44;;;;;;;6.90;2.50;;;25.10;60.30;;;;;;222217;1257;24240;-42
2023/06/28 23:53:48;;;;;;;3.60;2.50;;;24.90;60.70;;;;;;222119;1259;22508;-46
2023/06/28 23:58:53;;;;;;;5.00;2.30;;;24.80;60.90;;;;;;222512;1263;22538;-46
